createdAt,value
2022-11-08T00:03:31.435Z,96
2022-11-08T00:09:11.393Z,94
2022-11-08T00:14:51.511Z,90
2022-11-08T00:20:32.307Z,92
2022-11-08T00:26:12.333Z,104
2022-11-08T00:31:53.908Z,98
2022-11-08T00:37:35.538Z,100
2022-11-08T00:43:15.433Z,98
2022-11-08T00:48:55.518Z,104
2022-11-08T00:54:38.960Z,98
2022-11-08T01:00:23.056Z,100
2022-11-08T01:06:04.505Z,90
2022-11-08T01:11:46.025Z,90
2022-11-08T01:17:27.195Z,102
2022-11-08T01:23:07.668Z,92
2022-11-08T01:28:48.166Z,106
2022-11-08T01:34:29.435Z,98
2022-11-08T01:40:10.387Z,90
2022-11-08T01:45:52.115Z,88
2022-11-08T01:51:33.463Z,104
2022-11-08T01:57:14.954Z,94
2022-11-08T02:02:56.741Z,96
2022-11-08T02:19:20.898Z,104
2022-11-08T02:25:01.225Z,100
2022-11-08T02:30:41.380Z,106
2022-11-08T02:36:22.737Z,92
2022-11-08T02:42:03.921Z,88
2022-11-08T02:47:43.993Z,92
2022-11-08T02:53:25.285Z,94
2022-11-08T02:59:06.904Z,94
2022-11-08T03:04:47.052Z,100
2022-11-08T03:10:28.570Z,92
2022-11-08T03:16:09.083Z,100
2022-11-08T03:21:49.800Z,94
2022-11-08T03:27:30.188Z,84
2022-11-08T03:33:10.089Z,94
2022-11-08T03:38:50.229Z,100
2022-11-08T03:44:31.606Z,94
2022-11-08T03:50:12.931Z,90
2022-11-08T03:55:54.464Z,94
2022-11-08T04:01:37.563Z,98
2022-11-08T04:07:18.849Z,94
2022-11-08T04:12:59.229Z,90
2022-11-08T04:18:41.045Z,92
2022-11-08T04:24:22.601Z,88
2022-11-08T04:30:02.856Z,98
2022-11-08T04:35:42.968Z,90
2022-11-08T04:41:24.137Z,94
2022-11-08T04:47:05.418Z,80
2022-11-08T04:52:47.063Z,98
2022-11-08T04:58:28.504Z,94
2022-11-08T05:04:09.831Z,104
2022-11-08T05:09:51.013Z,112
2022-11-08T05:15:31.112Z,98
2022-11-08T05:21:12.450Z,88
2022-11-08T05:26:53.936Z,94
2022-11-08T05:32:34.517Z,84
2022-11-08T05:38:16.099Z,92
2022-11-08T05:43:58.247Z,94
2022-11-08T05:49:40.095Z,92
2022-11-08T05:55:20.610Z,96
2022-11-08T06:01:02.722Z,76
2022-11-08T06:06:44.482Z,80
2022-11-08T06:12:25.143Z,84
2022-11-08T06:18:05.595Z,88
2022-11-08T06:23:46.084Z,82
2022-11-08T06:35:06.421Z,86
2022-11-08T06:40:46.498Z,72
2022-11-08T06:46:27.367Z,96
2022-11-08T06:52:08.243Z,94
2022-11-08T06:57:48.277Z,92
2022-11-08T07:03:28.606Z,84
2022-11-08T07:09:09.160Z,94
2022-11-08T07:14:49.971Z,86
2022-11-08T07:20:30.916Z,100
2022-11-08T07:26:12.068Z,90
2022-11-08T07:31:52.615Z,82
2022-11-08T07:37:32.895Z,80
2022-11-08T07:43:26.289Z,96
2022-11-08T07:49:06.575Z,100
2022-11-08T07:54:46.459Z,104
2022-11-08T08:00:27.137Z,90
2022-11-08T08:06:07.825Z,86
2022-11-08T08:11:51.351Z,94
2022-11-08T08:17:31.877Z,102
2022-11-08T08:23:11.932Z,90
2022-11-08T08:28:52.316Z,90
2022-11-08T08:34:32.837Z,100
2022-11-08T08:40:12.937Z,100
2022-11-08T08:45:53.083Z,102
2022-11-08T08:51:34.162Z,100
2022-11-08T08:57:14.634Z,90
2022-11-08T09:08:34.750Z,106
2022-11-08T09:14:14.913Z,96
2022-11-08T09:19:58.129Z,66
2022-11-08T09:25:38.588Z,90
2022-11-08T09:31:19.326Z,106
2022-11-08T09:36:59.958Z,74
2022-11-08T09:42:40.162Z,66
2022-11-08T09:48:20.429Z,86
2022-11-08T09:54:00.235Z,88
2022-11-08T09:59:40.501Z,92
2022-11-08T10:05:20.808Z,64
2022-11-08T10:11:01.113Z,82
2022-11-08T10:16:42.243Z,28
2022-11-08T10:28:02.641Z,16
2022-11-08T10:33:46.058Z,22
2022-11-08T10:39:26.430Z,24
2022-11-08T10:45:06.660Z,18
2022-11-08T10:50:47.686Z,26
2022-11-08T10:56:28.165Z,18
2022-11-08T11:02:09.477Z,94
2022-11-08T11:07:49.590Z,54
2022-11-08T11:13:30.527Z,24
2022-11-08T11:19:11.058Z,0
2022-11-08T11:24:51.694Z,2
2022-11-08T11:30:37.403Z,28
2022-11-08T11:36:17.446Z,2
2022-11-08T11:41:57.729Z,20
2022-11-08T11:47:37.775Z,2
2022-11-08T11:53:18.071Z,2
2022-11-08T11:58:58.261Z,0
2022-11-08T12:04:38.249Z,6
2022-11-08T12:10:18.357Z,8
2022-11-08T12:15:59.091Z,80
2022-11-08T12:21:39.676Z,22
2022-11-08T12:27:20.619Z,90
2022-11-08T12:33:00.464Z,84
2022-11-08T12:38:40.262Z,72
2022-11-08T12:44:20.698Z,20
2022-11-08T12:50:01.483Z,2
2022-11-08T12:55:41.934Z,2
2022-11-08T13:01:23.153Z,100
2022-11-08T13:07:03.964Z,90
2022-11-08T13:18:24.284Z,82
2022-11-08T13:24:53.328Z,74
2022-11-08T13:30:33.419Z,72
2022-11-08T13:36:13.289Z,96
2022-11-08T13:41:54.172Z,78
2022-11-08T13:47:34.150Z,86
2022-11-08T13:53:14.226Z,92
2022-11-08T13:58:54.735Z,86
2022-11-08T14:04:34.825Z,78
2022-11-08T14:10:14.874Z,74
2022-11-08T14:15:55.490Z,78
2022-11-08T14:32:56.583Z,86
2022-11-08T14:38:36.402Z,74
2022-11-08T14:44:16.369Z,74
2022-11-08T14:49:56.691Z,90
2022-11-08T14:55:36.785Z,84
2022-11-08T15:01:17.456Z,84
2022-11-08T15:06:58.716Z,90
2022-11-08T15:12:38.829Z,70
2022-11-08T15:18:18.995Z,72
2022-11-08T15:23:59.153Z,84
2022-11-08T15:29:38.975Z,74
2022-11-08T15:35:18.943Z,84
2022-11-08T15:40:59.135Z,70
2022-11-08T15:46:38.993Z,72
2022-11-08T15:52:22.089Z,72
2022-11-08T15:58:02.233Z,88
2022-11-08T16:03:42.414Z,70
2022-11-08T16:09:24.565Z,92
2022-11-08T16:15:05.019Z,70
2022-11-08T16:20:44.915Z,76
2022-11-08T16:26:24.950Z,74
2022-11-08T16:32:05.164Z,66
2022-11-08T16:37:45.231Z,76
2022-11-08T16:43:25.252Z,86
2022-11-08T16:49:05.398Z,66
2022-11-08T16:54:46.140Z,66
2022-11-08T17:00:26.117Z,68
2022-11-08T17:06:06.822Z,70
2022-11-08T17:11:46.912Z,74
2022-11-08T17:17:27.086Z,104
2022-11-08T17:23:07.160Z,78
2022-11-08T17:28:47.322Z,88
2022-11-08T17:34:27.166Z,76
2022-11-08T17:40:08.051Z,82
2022-11-08T17:45:48.382Z,68
2022-11-08T17:51:28.603Z,62
2022-11-08T17:57:08.543Z,80
2022-11-08T18:02:48.408Z,106
2022-11-08T18:08:28.699Z,124
2022-11-08T18:14:11.836Z,68
2022-11-08T18:19:51.826Z,106
2022-11-08T18:31:03.979Z,94
2022-11-08T18:36:44.114Z,94
2022-11-08T18:42:24.161Z,102
2022-11-08T18:48:04.499Z,100
2022-11-08T18:53:44.285Z,90
2022-11-08T18:59:24.412Z,102
2022-11-08T19:05:05.406Z,100
2022-11-08T19:10:46.258Z,100
2022-11-08T19:16:26.200Z,92
2022-11-08T19:22:06.369Z,94
2022-11-08T19:27:48.327Z,104
2022-11-08T19:33:28.349Z,104
2022-11-08T19:39:09.860Z,96
2022-11-08T19:44:50.080Z,90
2022-11-08T19:50:30.020Z,96
2022-11-08T19:56:10.493Z,94
2022-11-08T20:01:51.867Z,106
2022-11-08T20:07:32.647Z,102
2022-11-08T20:13:12.904Z,96
2022-11-08T20:18:53.043Z,90
2022-11-08T20:24:33.287Z,106
2022-11-08T20:30:13.899Z,98
2022-11-08T20:35:53.736Z,100
2022-11-08T20:41:33.863Z,104
2022-11-08T20:47:14.620Z,76
2022-11-08T20:52:54.860Z,122
2022-11-08T20:58:34.708Z,108
2022-11-08T21:04:16.507Z,102
2022-11-08T21:10:45.885Z,90
2022-11-08T21:17:23.014Z,94
2022-11-08T21:23:03.453Z,94
2022-11-08T21:28:43.766Z,98
2022-11-08T21:34:33.248Z,100
2022-11-08T21:40:14.031Z,94
2022-11-08T21:45:53.989Z,92
2022-11-08T21:51:34.145Z,96
2022-11-08T21:57:14.399Z,94
2022-11-08T22:02:54.481Z,96
2022-11-08T22:08:34.590Z,102
2022-11-08T22:14:14.541Z,94
2022-11-08T22:19:54.344Z,98
2022-11-08T22:25:34.523Z,104
2022-11-08T22:36:55.325Z,90
2022-11-08T22:42:35.909Z,106
2022-11-08T22:48:18.698Z,100
2022-11-08T22:53:58.991Z,90
2022-11-08T22:59:41.434Z,98
2022-11-08T23:05:21.729Z,106
2022-11-08T23:11:01.722Z,98
2022-11-08T23:16:42.041Z,102
2022-11-08T23:22:22.401Z,94
2022-11-08T23:28:02.394Z,104
2022-11-08T23:33:42.433Z,92
2022-11-08T23:39:22.543Z,112
2022-11-08T23:45:02.757Z,90
2022-11-08T23:50:43.064Z,92
